sensor_id;sensor_type;location;lat;lon;timestamp;P1;durP1;ratioP1;P2;durP2;ratioP2
62903;SDS011;49000;50.698;13.322;2022-10-30T00:01:51;9.17;;;3.23;;
62903;SDS011;49000;50.698;13.322;2022-10-30T00:04:17;9.70;;;2.93;;
62903;SDS011;49000;50.698;13.322;2022-10-30T00:06:42;8.40;;;3.17;;
62903;SDS011;49000;50.698;13.322;2022-10-30T00:09:08;5.30;;;2.80;;
62903;SDS011;49000;50.698;13.322;2022-10-30T00:11:34;7.30;;;3.17;;
62903;SDS011;49000;50.698;13.322;2022-10-30T00:14:00;7.70;;;3.00;;
62903;SDS011;49000;50.698;13.322;2022-10-30T00:16:25;7.23;;;3.03;;
62903;SDS011;49000;50.698;13.322;2022-10-30T00:18:51;6.03;;;2.77;;
62903;SDS011;49000;50.698;13.322;2022-10-30T00:21:16;6.47;;;2.53;;
62903;SDS011;49000;50.698;13.322;2022-10-30T00:23:46;5.90;;;2.60;;
62903;SDS011;49000;50.698;13.322;2022-10-30T00:26:12;5.97;;;2.97;;
62903;SDS011;49000;50.698;13.322;2022-10-30T00:28:38;5.10;;;2.67;;
62903;SDS011;49000;50.698;13.322;2022-10-30T00:31:04;6.10;;;2.57;;
62903;SDS011;49000;50.698;13.322;2022-10-30T00:33:30;7.10;;;2.53;;
62903;SDS011;49000;50.698;13.322;2022-10-30T00:35:56;7.23;;;2.37;;
62903;SDS011;49000;50.698;13.322;2022-10-30T00:38:22;4.10;;;2.30;;
62903;SDS011;49000;50.698;13.322;2022-10-30T00:40:47;4.70;;;2.07;;
62903;SDS011;49000;50.698;13.322;2022-10-30T00:43:33;4.23;;;2.20;;
62903;SDS011;49000;50.698;13.322;2022-10-30T00:46:02;4.17;;;2.30;;
62903;SDS011;49000;50.698;13.322;2022-10-30T00:48:51;6.13;;;2.13;;
62903;SDS011;49000;50.698;13.322;2022-10-30T00:51:22;4.97;;;2.10;;
62903;SDS011;49000;50.698;13.322;2022-10-30T00:53:48;5.50;;;2.30;;
62903;SDS011;49000;50.698;13.322;2022-10-30T00:56:16;5.50;;;2.30;;
62903;SDS011;49000;50.698;13.322;2022-10-30T00:58:49;5.80;;;2.40;;
62903;SDS011;49000;50.698;13.322;2022-10-30T01:01:20;4.83;;;2.20;;
62903;SDS011;49000;50.698;13.322;2022-10-30T01:03:49;5.33;;;2.20;;
62903;SDS011;49000;50.698;13.322;2022-10-30T01:06:19;4.90;;;2.23;;
62903;SDS011;49000;50.698;13.322;2022-10-30T01:08:45;6.73;;;2.20;;
62903;SDS011;49000;50.698;13.322;2022-10-30T01:11:11;4.57;;;2.13;;
62903;SDS011;49000;50.698;13.322;2022-10-30T01:13:37;4.87;;;2.20;;
62903;SDS011;49000;50.698;13.322;2022-10-30T01:21:30;6.10;;;2.20;;
62903;SDS011;49000;50.698;13.322;2022-10-30T01:32:41;4.07;;;2.00;;
62903;SDS011;49000;50.698;13.322;2022-10-30T01:35:19;6.80;;;2.63;;
62903;SDS011;49000;50.698;13.322;2022-10-30T01:38:01;6.73;;;2.30;;
62903;SDS011;49000;50.698;13.322;2022-10-30T01:40:33;7.60;;;2.50;;
62903;SDS011;49000;50.698;13.322;2022-10-30T01:43:01;5.97;;;2.30;;
62903;SDS011;49000;50.698;13.322;2022-10-30T01:48:34;6.37;;;2.57;;
62903;SDS011;49000;50.698;13.322;2022-10-30T01:55:01;4.30;;;2.00;;
62903;SDS011;49000;50.698;13.322;2022-10-30T02:00:06;5.10;;;2.20;;
62903;SDS011;49000;50.698;13.322;2022-10-30T02:02:37;7.53;;;2.30;;
62903;SDS011;49000;50.698;13.322;2022-10-30T02:05:03;4.30;;;2.03;;
62903;SDS011;49000;50.698;13.322;2022-10-30T02:07:31;6.10;;;1.87;;
62903;SDS011;49000;50.698;13.322;2022-10-30T02:09:57;9.67;;;2.37;;
62903;SDS011;49000;50.698;13.322;2022-10-30T02:12:23;5.50;;;2.97;;
62903;SDS011;49000;50.698;13.322;2022-10-30T02:14:51;4.13;;;2.07;;
62903;SDS011;49000;50.698;13.322;2022-10-30T02:17:20;6.43;;;2.20;;
62903;SDS011;49000;50.698;13.322;2022-10-30T02:19:46;6.30;;;2.53;;
62903;SDS011;49000;50.698;13.322;2022-10-30T02:22:11;4.60;;;2.20;;
62903;SDS011;49000;50.698;13.322;2022-10-30T02:24:37;5.77;;;2.10;;
62903;SDS011;49000;50.698;13.322;2022-10-30T02:27:03;8.03;;;2.27;;
62903;SDS011;49000;50.698;13.322;2022-10-30T02:29:28;5.43;;;2.67;;
62903;SDS011;49000;50.698;13.322;2022-10-30T02:31:54;3.60;;;1.63;;
62903;SDS011;49000;50.698;13.322;2022-10-30T02:34:20;6.00;;;2.00;;
62903;SDS011;49000;50.698;13.322;2022-10-30T02:36:45;6.17;;;2.27;;
62903;SDS011;49000;50.698;13.322;2022-10-30T02:39:11;5.53;;;2.47;;
62903;SDS011;49000;50.698;13.322;2022-10-30T02:41:36;4.93;;;2.20;;
62903;SDS011;49000;50.698;13.322;2022-10-30T02:44:02;7.10;;;2.03;;
62903;SDS011;49000;50.698;13.322;2022-10-30T02:46:30;5.17;;;1.90;;
62903;SDS011;49000;50.698;13.322;2022-10-30T02:48:56;4.90;;;1.63;;
62903;SDS011;49000;50.698;13.322;2022-10-30T02:51:22;2.37;;;1.57;;
62903;SDS011;49000;50.698;13.322;2022-10-30T02:53:47;3.47;;;1.83;;
62903;SDS011;49000;50.698;13.322;2022-10-30T02:56:13;6.57;;;1.87;;
62903;SDS011;49000;50.698;13.322;2022-10-30T02:58:39;6.43;;;2.27;;
62903;SDS011;49000;50.698;13.322;2022-10-30T03:01:12;7.27;;;2.03;;
62903;SDS011;49000;50.698;13.322;2022-10-30T03:03:40;4.43;;;1.73;;
62903;SDS011;49000;50.698;13.322;2022-10-30T03:06:08;5.67;;;1.90;;
62903;SDS011;49000;50.698;13.322;2022-10-30T03:08:36;6.47;;;2.87;;
62903;SDS011;49000;50.698;13.322;2022-10-30T03:11:11;4.87;;;1.80;;
62903;SDS011;49000;50.698;13.322;2022-10-30T03:13:42;4.80;;;2.33;;
62903;SDS011;49000;50.698;13.322;2022-10-30T03:16:10;5.30;;;2.20;;
62903;SDS011;49000;50.698;13.322;2022-10-30T03:18:41;6.13;;;1.90;;
62903;SDS011;49000;50.698;13.322;2022-10-30T03:21:08;5.27;;;1.90;;
62903;SDS011;49000;50.698;13.322;2022-10-30T03:23:35;3.90;;;1.83;;
62903;SDS011;49000;50.698;13.322;2022-10-30T03:26:01;6.20;;;1.90;;
62903;SDS011;49000;50.698;13.322;2022-10-30T03:28:28;4.73;;;1.60;;
62903;SDS011;49000;50.698;13.322;2022-10-30T03:31:02;6.17;;;1.70;;
62903;SDS011;49000;50.698;13.322;2022-10-30T03:33:29;4.00;;;1.90;;
62903;SDS011;49000;50.698;13.322;2022-10-30T03:35:55;5.47;;;1.50;;
62903;SDS011;49000;50.698;13.322;2022-10-30T03:38:21;6.73;;;1.60;;
62903;SDS011;49000;50.698;13.322;2022-10-30T03:40:46;6.07;;;1.93;;
62903;SDS011;49000;50.698;13.322;2022-10-30T03:43:12;3.97;;;1.40;;
62903;SDS011;49000;50.698;13.322;2022-10-30T03:45:38;4.87;;;1.90;;
62903;SDS011;49000;50.698;13.322;2022-10-30T03:48:04;6.27;;;2.00;;
62903;SDS011;49000;50.698;13.322;2022-10-30T03:50:30;6.30;;;1.70;;
62903;SDS011;49000;50.698;13.322;2022-10-30T03:52:56;10.20;;;1.80;;
62903;SDS011;49000;50.698;13.322;2022-10-30T03:55:22;6.83;;;1.60;;
62903;SDS011;49000;50.698;13.322;2022-10-30T03:57:49;3.60;;;1.73;;
62903;SDS011;49000;50.698;13.322;2022-10-30T04:00:15;4.60;;;1.60;;
62903;SDS011;49000;50.698;13.322;2022-10-30T04:02:45;4.70;;;1.80;;
62903;SDS011;49000;50.698;13.322;2022-10-30T04:05:12;7.43;;;2.03;;
62903;SDS011;49000;50.698;13.322;2022-10-30T04:07:42;7.10;;;1.93;;
62903;SDS011;49000;50.698;13.322;2022-10-30T04:10:08;4.27;;;1.70;;
62903;SDS011;49000;50.698;13.322;2022-10-30T04:12:34;4.43;;;1.33;;
62903;SDS011;49000;50.698;13.322;2022-10-30T04:15:00;4.00;;;1.80;;
62903;SDS011;49000;50.698;13.322;2022-10-30T04:17:25;5.53;;;1.77;;
62903;SDS011;49000;50.698;13.322;2022-10-30T04:19:51;4.77;;;1.40;;
62903;SDS011;49000;50.698;13.322;2022-10-30T04:22:16;6.97;;;1.60;;
62903;SDS011;49000;50.698;13.322;2022-10-30T04:24:42;6.40;;;1.30;;
62903;SDS011;49000;50.698;13.322;2022-10-30T04:27:08;3.77;;;1.37;;
62903;SDS011;49000;50.698;13.322;2022-10-30T04:29:34;4.17;;;1.33;;
62903;SDS011;49000;50.698;13.322;2022-10-30T04:32:01;3.90;;;1.20;;
62903;SDS011;49000;50.698;13.322;2022-10-30T04:34:27;3.77;;;1.30;;
62903;SDS011;49000;50.698;13.322;2022-10-30T04:36:53;4.43;;;1.63;;
62903;SDS011;49000;50.698;13.322;2022-10-30T04:39:19;3.77;;;1.33;;
62903;SDS011;49000;50.698;13.322;2022-10-30T04:41:44;2.03;;;1.30;;
62903;SDS011;49000;50.698;13.322;2022-10-30T04:44:10;4.73;;;1.30;;
62903;SDS011;49000;50.698;13.322;2022-10-30T04:46:35;3.40;;;0.97;;
62903;SDS011;49000;50.698;13.322;2022-10-30T04:49:01;3.00;;;1.83;;
62903;SDS011;49000;50.698;13.322;2022-10-30T04:51:26;4.10;;;1.50;;
62903;SDS011;49000;50.698;13.322;2022-10-30T04:53:52;3.87;;;1.37;;
62903;SDS011;49000;50.698;13.322;2022-10-30T04:56:19;3.33;;;1.40;;
62903;SDS011;49000;50.698;13.322;2022-10-30T04:58:45;3.27;;;1.30;;
62903;SDS011;49000;50.698;13.322;2022-10-30T05:01:10;4.20;;;1.43;;
62903;SDS011;49000;50.698;13.322;2022-10-30T05:03:36;5.33;;;1.20;;
62903;SDS011;49000;50.698;13.322;2022-10-30T05:06:02;2.33;;;1.10;;
62903;SDS011;49000;50.698;13.322;2022-10-30T05:08:30;5.07;;;1.40;;
62903;SDS011;49000;50.698;13.322;2022-10-30T05:10:56;4.77;;;1.20;;
62903;SDS011;49000;50.698;13.322;2022-10-30T05:13:22;3.37;;;1.20;;
62903;SDS011;49000;50.698;13.322;2022-10-30T05:15:48;3.47;;;1.30;;
62903;SDS011;49000;50.698;13.322;2022-10-30T05:18:13;3.67;;;1.20;;
62903;SDS011;49000;50.698;13.322;2022-10-30T05:20:39;3.70;;;1.40;;
62903;SDS011;49000;50.698;13.322;2022-10-30T05:23:05;7.90;;;1.60;;
62903;SDS011;49000;50.698;13.322;2022-10-30T05:25:30;4.80;;;1.60;;
62903;SDS011;49000;50.698;13.322;2022-10-30T05:27:59;8.17;;;1.70;;
62903;SDS011;49000;50.698;13.322;2022-10-30T05:30:27;5.57;;;1.50;;
62903;SDS011;49000;50.698;13.322;2022-10-30T05:32:56;7.20;;;1.50;;
62903;SDS011;49000;50.698;13.322;2022-10-30T05:35:26;7.30;;;1.60;;
62903;SDS011;49000;50.698;13.322;2022-10-30T05:37:52;6.33;;;1.47;;
62903;SDS011;49000;50.698;13.322;2022-10-30T05:40:18;3.60;;;1.23;;
62903;SDS011;49000;50.698;13.322;2022-10-30T05:42:44;6.10;;;1.27;;
62903;SDS011;49000;50.698;13.322;2022-10-30T05:45:10;4.93;;;1.60;;
62903;SDS011;49000;50.698;13.322;2022-10-30T05:47:36;11.80;;;1.80;;
62903;SDS011;49000;50.698;13.322;2022-10-30T05:50:02;5.97;;;1.70;;
62903;SDS011;49000;50.698;13.322;2022-10-30T05:52:28;6.57;;;1.30;;
62903;SDS011;49000;50.698;13.322;2022-10-30T05:54:53;3.33;;;1.77;;
62903;SDS011;49000;50.698;13.322;2022-10-30T05:57:19;4.03;;;1.30;;
62903;SDS011;49000;50.698;13.322;2022-10-30T05:59:44;6.27;;;1.53;;
62903;SDS011;49000;50.698;13.322;2022-10-30T06:02:10;3.23;;;1.40;;
62903;SDS011;49000;50.698;13.322;2022-10-30T06:04:36;4.33;;;1.20;;
62903;SDS011;49000;50.698;13.322;2022-10-30T06:07:01;10.07;;;1.63;;
62903;SDS011;49000;50.698;13.322;2022-10-30T06:09:27;4.00;;;1.20;;
62903;SDS011;49000;50.698;13.322;2022-10-30T06:11:52;6.57;;;1.20;;
62903;SDS011;49000;50.698;13.322;2022-10-30T06:14:18;3.57;;;1.30;;
62903;SDS011;49000;50.698;13.322;2022-10-30T06:16:43;5.07;;;1.37;;
62903;SDS011;49000;50.698;13.322;2022-10-30T06:19:09;7.33;;;1.50;;
62903;SDS011;49000;50.698;13.322;2022-10-30T06:21:34;5.10;;;1.67;;
62903;SDS011;49000;50.698;13.322;2022-10-30T06:24:00;8.23;;;1.50;;
62903;SDS011;49000;50.698;13.322;2022-10-30T06:26:25;3.50;;;1.30;;
62903;SDS011;49000;50.698;13.322;2022-10-30T06:28:51;10.27;;;1.70;;
62903;SDS011;49000;50.698;13.322;2022-10-30T06:31:16;5.60;;;1.87;;
62903;SDS011;49000;50.698;13.322;2022-10-30T06:33:42;8.70;;;1.73;;
62903;SDS011;49000;50.698;13.322;2022-10-30T06:36:07;3.17;;;1.47;;
62903;SDS011;49000;50.698;13.322;2022-10-30T06:38:33;5.67;;;1.30;;
62903;SDS011;49000;50.698;13.322;2022-10-30T06:40:59;6.40;;;1.63;;
62903;SDS011;49000;50.698;13.322;2022-10-30T06:43:24;7.90;;;1.37;;
62903;SDS011;49000;50.698;13.322;2022-10-30T06:45:50;7.27;;;1.70;;
62903;SDS011;49000;50.698;13.322;2022-10-30T06:48:15;6.93;;;1.53;;
62903;SDS011;49000;50.698;13.322;2022-10-30T06:50:42;7.87;;;1.87;;
62903;SDS011;49000;50.698;13.322;2022-10-30T06:53:08;4.60;;;1.70;;
62903;SDS011;49000;50.698;13.322;2022-10-30T06:55:33;6.53;;;1.63;;
62903;SDS011;49000;50.698;13.322;2022-10-30T06:57:59;5.27;;;1.30;;
62903;SDS011;49000;50.698;13.322;2022-10-30T07:00:25;7.13;;;1.90;;
62903;SDS011;49000;50.698;13.322;2022-10-30T07:03:08;4.63;;;1.60;;
62903;SDS011;49000;50.698;13.322;2022-10-30T07:05:34;5.63;;;1.50;;
62903;SDS011;49000;50.698;13.322;2022-10-30T07:07:59;7.03;;;1.50;;
62903;SDS011;49000;50.698;13.322;2022-10-30T07:10:25;5.13;;;1.17;;
